Time;durP1;ratioP1;P1;durP2;ratioP2;P2;SDS_P1;SDS_P2;PMS_P1;PMS_P2;Temp;Humidity;BMP_temperature;BMP_pressure;BME280_temperature;BME280_humidity;BME280_pressure;Samples;Min_cycle;Max_cycle;Signal;HPM_P1;HPM_P2
2021/11/15 00:02:07;;;;;;;115.88;44.97;;;3.60;99.90;;;;;;5013134;28;20451;-74
2021/11/15 00:04:33;;;;;;;105.22;42.20;;;3.60;99.90;;;;;;5011920;28;20021;-74
2021/11/15 00:07:00;;;;;;;107.22;44.20;;;3.60;99.90;;;;;;5013185;28;20029;-74
2021/11/15 00:09:26;;;;;;;107.43;43.50;;;3.70;99.90;;;;;;5012979;28;20474;-74
2021/11/15 00:11:52;;;;;;;120.80;45.95;;;3.70;99.90;;;;;;5011871;28;20022;-74
2021/11/15 00:14:18;;;;;;;117.65;44.35;;;3.60;99.90;;;;;;5013142;28;20514;-74
2021/11/15 00:16:44;;;;;;;106.30;44.08;;;3.60;99.90;;;;;;5032802;28;20133;-74
2021/11/15 00:19:09;;;;;;;115.05;45.30;;;3.60;99.90;;;;;;5027439;28;20080;-74
2021/11/15 00:21:35;;;;;;;104.97;43.30;;;3.60;99.90;;;;;;5012884;28;20113;-74
2021/11/15 00:24:01;;;;;;;104.03;45.47;;;3.60;99.90;;;;;;5012977;28;20048;-74
2021/11/15 00:26:26;;;;;;;107.50;46.30;;;3.60;99.90;;;;;;5012928;28;20034;-74
2021/11/15 00:28:52;;;;;;;106.82;43.35;;;3.60;99.90;;;;;;5011692;28;20032;-74
2021/11/15 00:31:19;;;;;;;108.60;45.33;;;3.60;99.90;;;;;;5016337;28;20022;-74
2021/11/15 00:33:45;;;;;;;112.63;43.67;;;3.60;99.90;;;;;;5032942;28;20033;-74
2021/11/15 00:36:10;;;;;;;97.70;41.42;;;3.60;99.90;;;;;;5032477;28;20507;-74
2021/11/15 00:38:36;;;;;;;102.85;41.85;;;3.60;99.90;;;;;;5031250;28;20068;-74
2021/11/15 00:41:02;;;;;;;101.82;43.53;;;3.60;99.90;;;;;;5032514;28;20036;-74
2021/11/15 00:43:28;;;;;;;107.65;45.30;;;3.60;99.90;;;;;;5032502;28;20067;-74
2021/11/15 00:45:54;;;;;;;99.30;38.58;;;3.60;99.90;;;;;;5032499;28;20026;-74
2021/11/15 00:48:19;;;;;;;103.50;41.05;;;3.60;99.90;;;;;;5032537;28;20026;-74
2021/11/15 00:50:45;;;;;;;107.18;40.50;;;3.60;99.90;;;;;;5032389;28;20038;-74
2021/11/15 00:53:11;;;;;;;99.00;37.65;;;3.60;99.90;;;;;;5032474;28;20072;-74
2021/11/15 00:55:36;;;;;;;96.78;39.67;;;3.60;99.90;;;;;;5020487;28;20040;-74
2021/11/15 00:58:03;;;;;;;99.40;40.55;;;3.60;99.90;;;;;;5012707;28;20022;-74
2021/11/15 01:00:30;;;;;;;103.15;39.38;;;3.50;99.90;;;;;;4995191;28;20030;-74
2021/11/15 01:02:57;;;;;;;101.82;38.95;;;3.50;99.90;;;;;;5011341;28;20018;-74
2021/11/15 01:05:24;;;;;;;101.63;42.20;;;3.50;99.90;;;;;;5012589;28;20030;-74
2021/11/15 01:07:51;;;;;;;99.70;40.42;;;3.60;99.90;;;;;;5012535;28;20014;-74
2021/11/15 01:10:19;;;;;;;86.65;36.88;;;3.50;99.90;;;;;;5012768;28;20383;-74
2021/11/15 01:12:45;;;;;;;90.25;38.58;;;3.50;99.90;;;;;;5013767;28;20044;-74
2021/11/15 01:15:15;;;;;;;87.25;37.45;;;3.60;99.90;;;;;;5016037;28;20404;-74
2021/11/15 01:17:42;;;;;;;85.60;37.50;;;3.50;99.90;;;;;;5016270;28;20014;-74
2021/11/15 01:20:10;;;;;;;92.00;37.90;;;3.50;99.90;;;;;;5015963;28;20435;-74
2021/11/15 01:22:36;;;;;;;90.30;38.53;;;3.60;99.90;;;;;;5015911;28;20022;-74
2021/11/15 01:25:03;;;;;;;105.10;41.03;;;3.60;99.90;;;;;;5015854;28;20029;-74
2021/11/15 01:27:29;;;;;;;105.45;41.58;;;3.60;99.90;;;;;;5015805;28;20041;-74
2021/11/15 01:29:55;;;;;;;94.68;36.47;;;3.60;99.90;;;;;;5015642;28;20506;-74
2021/11/15 01:32:21;;;;;;;90.80;37.33;;;3.50;99.90;;;;;;5015757;28;20033;-74
2021/11/15 01:34:47;;;;;;;82.05;35.45;;;3.50;99.90;;;;;;5014275;28;20045;-74
2021/11/15 01:37:12;;;;;;;91.03;38.47;;;3.50;99.90;;;;;;5015778;28;20049;-74
2021/11/15 01:39:38;;;;;;;88.32;36.55;;;3.50;99.90;;;;;;5015547;28;20030;-74
2021/11/15 01:42:04;;;;;;;81.28;35.05;;;3.50;99.90;;;;;;5015630;28;20387;-74
2021/11/15 01:44:30;;;;;;;78.75;35.22;;;3.40;99.90;;;;;;5015484;28;20022;-74
2021/11/15 01:46:57;;;;;;;71.75;33.67;;;3.40;99.90;;;;;;5015525;28;20029;-74
2021/11/15 01:49:22;;;;;;;82.00;36.85;;;3.40;99.90;;;;;;5023701;28;20026;-74
2021/11/15 01:51:48;;;;;;;78.32;33.38;;;3.30;99.90;;;;;;5035173;28;20052;-73
2021/11/15 01:54:15;;;;;;;76.20;31.52;;;3.30;99.90;;;;;;5035035;28;20498;-74
2021/11/15 01:56:41;;;;;;;78.30;33.55;;;3.30;99.90;;;;;;5035036;28;20034;-74
2021/11/15 01:59:07;;;;;;;75.65;34.13;;;3.30;99.90;;;;;;5035018;28;20034;-74
2021/11/15 02:01:33;;;;;;;87.28;36.72;;;3.30;99.90;;;;;;5033632;28;20037;-74
2021/11/15 02:03:59;;;;;;;75.90;33.92;;;3.30;99.90;;;;;;5033649;28;20029;-74
2021/11/15 02:06:26;;;;;;;75.90;32.85;;;3.30;99.90;;;;;;5033583;28;20083;-74
2021/11/15 02:08:52;;;;;;;79.53;34.30;;;3.30;99.90;;;;;;5034742;28;20032;-74
2021/11/15 02:11:19;;;;;;;77.45;36.75;;;3.30;99.90;;;;;;5035300;28;20033;-74
2021/11/15 02:13:45;;;;;;;73.90;32.50;;;3.30;99.90;;;;;;5033499;28;20030;-74
2021/11/15 02:16:11;;;;;;;83.50;34.35;;;3.20;99.90;;;;;;5033337;28;20034;-74
2021/11/15 02:18:37;;;;;;;77.80;32.13;;;3.30;99.90;;;;;;5034737;28;20495;-74
2021/11/15 02:21:07;;;;;;;81.32;35.35;;;3.30;99.90;;;;;;5034537;28;20399;-74
2021/11/15 02:23:36;;;;;;;69.93;32.75;;;3.20;99.90;;;;;;5033992;28;20022;-74
2021/11/15 02:26:04;;;;;;;81.68;33.65;;;3.20;99.90;;;;;;5034155;28;20092;-74
2021/11/15 02:28:34;;;;;;;72.00;31.15;;;3.20;99.90;;;;;;5034382;28;20028;-74
2021/11/15 02:31:00;;;;;;;71.70;30.80;;;3.20;99.90;;;;;;5034116;28;20025;-74
2021/11/15 02:33:28;;;;;;;83.85;33.75;;;3.20;99.90;;;;;;5034363;28;20021;-74
2021/11/15 02:35:55;;;;;;;82.43;32.92;;;3.20;99.90;;;;;;5034160;28;20041;-74
2021/11/15 02:38:21;;;;;;;75.10;34.78;;;3.20;99.90;;;;;;5034283;28;20390;-74
2021/11/15 02:40:47;;;;;;;75.68;35.63;;;3.20;99.90;;;;;;5032887;28;20029;-74
2021/11/15 02:43:13;;;;;;;78.50;34.75;;;3.20;99.90;;;;;;5034254;28;20024;-74
2021/11/15 02:45:38;;;;;;;78.55;31.10;;;3.20;99.90;;;;;;5034089;28;20017;-74
2021/11/15 02:48:05;;;;;;;77.57;34.55;;;3.20;99.90;;;;;;5034127;28;20084;-74
2021/11/15 02:50:32;;;;;;;79.90;34.30;;;3.20;99.90;;;;;;5033978;28;20056;-74
2021/11/15 02:53:02;;;;;;;76.80;33.85;;;3.20;99.90;;;;;;5032748;28;20028;-74
2021/11/15 02:55:29;;;;;;;72.60;30.83;;;3.30;99.90;;;;;;5033872;28;20048;-74
2021/11/15 02:57:57;;;;;;;83.47;35.72;;;3.30;99.90;;;;;;5032668;28;20022;-74
2021/11/15 03:00:44;;;;;;;81.00;33.92;;;3.30;99.90;;;;;;5033823;28;20018;-74
2021/11/15 03:03:12;;;;;;;74.60;32.15;;;3.30;99.90;;;;;;5026782;28;20037;-74
2021/11/15 03:05:41;;;;;;;73.47;32.17;;;3.30;99.90;;;;;;5033679;28;20087;-74
2021/11/15 03:08:08;;;;;;;78.50;33.50;;;3.30;99.90;;;;;;5033640;28;20536;-74
2021/11/15 03:10:36;;;;;;;81.97;36.67;;;3.30;99.90;;;;;;5033888;28;20052;-74
2021/11/15 03:13:04;;;;;;;84.45;34.72;;;3.30;99.90;;;;;;5033618;28;20395;-74
2021/11/15 03:15:41;;;;;;;76.78;32.95;;;3.30;99.90;;;;;;5033463;28;20036;-74
2021/11/15 03:18:10;;;;;;;75.25;32.13;;;3.30;99.90;;;;;;5032225;28;20037;-74
2021/11/15 03:20:44;;;;;;;77.68;32.63;;;3.30;99.90;;;;;;5048766;28;20017;-74
2021/11/15 03:23:14;;;;;;;75.28;34.20;;;3.30;99.90;;;;;;5032232;28;20021;-74
2021/11/15 03:25:41;;;;;;;87.00;36.10;;;3.30;99.90;;;;;;5033378;28;20065;-74
2021/11/15 03:28:11;;;;;;;78.28;32.25;;;3.30;99.90;;;;;;5033350;28;20067;-74
2021/11/15 03:30:37;;;;;;;81.65;36.97;;;3.20;99.90;;;;;;5033299;28;20442;-74
2021/11/15 03:33:05;;;;;;;77.68;34.83;;;3.20;99.90;;;;;;5032072;28;20028;-74
2021/11/15 03:35:31;;;;;;;84.65;39.10;;;3.20;99.90;;;;;;5031557;28;20029;-74
2021/11/15 03:37:56;;;;;;;82.60;35.90;;;3.20;99.90;;;;;;5031956;28;20091;-74
2021/11/15 03:40:25;;;;;;;84.05;36.20;;;3.20;99.90;;;;;;5033232;28;20021;-74
2021/11/15 03:42:56;;;;;;;86.43;36.67;;;3.20;99.90;;;;;;5031847;28;20071;-74
2021/11/15 03:45:23;;;;;;;80.07;34.83;;;3.20;99.90;;;;;;5020266;28;20164;-74
2021/11/15 03:47:50;;;;;;;90.63;37.33;;;3.20;99.90;;;;;;5023776;28;20398;-74
2021/11/15 03:50:16;;;;;;;87.88;37.03;;;3.20;99.90;;;;;;5020903;28;20152;-74
2021/11/15 03:52:44;;;;;;;87.65;36.95;;;3.20;99.90;;;;;;5021680;28;20068;-74
2021/11/15 03:55:12;;;;;;;88.35;39.08;;;3.20;99.90;;;;;;5020895;28;20124;-74
2021/11/15 03:57:38;;;;;;;87.80;35.88;;;3.20;99.90;;;;;;5032884;28;20430;-74
2021/11/15 04:00:08;;;;;;;79.28;36.60;;;3.20;99.90;;;;;;5022234;28;20663;-74
2021/11/15 04:02:35;;;;;;;87.28;37.30;;;3.20;99.90;;;;;;5020562;28;20014;-74
2021/11/15 04:05:04;;;;;;;88.85;37.72;;;3.20;99.90;;;;;;5021644;28;20022;-74
2021/11/15 04:07:39;;;;;;;84.70;35.63;;;3.20;99.90;;;;;;5024056;28;20108;-74
2021/11/15 04:10:18;;;;;;;76.35;34.13;;;3.20;99.90;;;;;;5023429;28;20041;-74
2021/11/15 04:12:45;;;;;;;84.07;32.53;;;3.20;99.90;;;;;;5026925;28;20033;-74
2021/11/15 04:15:12;;;;;;;71.97;30.40;;;3.10;99.90;;;;;;5021549;28;20034;-74
2021/11/15 04:17:40;;;;;;;77.30;33.28;;;3.10;99.90;;;;;;5025327;28;20021;-74
2021/11/15 04:20:09;;;;;;;82.78;34.88;;;3.10;99.90;;;;;;5022058;28;20475;-74
2021/11/15 04:22:35;;;;;;;74.25;29.65;;;3.10;99.90;;;;;;5022894;28;20028;-74
2021/11/15 04:25:04;;;;;;;68.65;31.67;;;3.10;99.90;;;;;;5023176;28;20464;-74
2021/11/15 04:27:30;;;;;;;72.35;30.60;;;3.10;99.90;;;;;;5022303;28;20104;-74
2021/11/15 04:29:56;;;;;;;67.60;32.03;;;3.10;99.90;;;;;;5024011;28;20041;-74
2021/11/15 04:32:22;;;;;;;73.10;30.92;;;3.10;99.90;;;;;;5024340;28;20471;-74
2021/11/15 04:34:47;;;;;;;73.05;30.85;;;3.10;99.90;;;;;;5023208;28;20471;-74
2021/11/15 04:37:14;;;;;;;70.63;31.10;;;3.10;99.90;;;;;;5019523;28;20483;-74
2021/11/15 04:39:40;;;;;;;75.05;32.60;;;3.10;99.90;;;;;;5023404;28;20478;-74
2021/11/15 04:42:06;;;;;;;69.28;32.67;;;3.10;99.90;;;;;;5020014;28;20054;-74
2021/11/15 04:44:31;;;;;;;66.65;29.75;;;3.10;99.90;;;;;;5024418;28;20052;-74
2021/11/15 04:46:57;;;;;;;72.47;33.38;;;3.10;99.90;;;;;;5016680;28;20434;-74
2021/11/15 04:49:23;;;;;;;73.78;29.48;;;3.10;99.90;;;;;;5029668;28;20031;-74
2021/11/15 04:51:49;;;;;;;80.35;31.77;;;3.00;99.90;;;;;;5025815;28;20029;-74
2021/11/15 04:54:15;;;;;;;70.72;31.08;;;3.00;99.90;;;;;;5027000;28;20029;-74
2021/11/15 04:56:43;;;;;;;69.95;28.45;;;3.00;99.90;;;;;;5027101;28;20378;-74
2021/11/15 04:59:09;;;;;;;57.35;28.25;;;3.00;99.90;;;;;;5027611;28;20491;-74
2021/11/15 05:01:35;;;;;;;60.35;26.85;;;2.90;99.90;;;;;;5036790;28;20026;-74
2021/11/15 05:04:01;;;;;;;61.17;26.58;;;3.00;99.90;;;;;;5027661;28;20029;-74
2021/11/15 05:06:27;;;;;;;68.60;29.52;;;3.00;99.90;;;;;;5028415;28;20034;-74
2021/11/15 05:08:52;;;;;;;70.15;29.98;;;3.00;99.90;;;;;;5020996;28;20116;-74
2021/11/15 05:11:18;;;;;;;61.28;27.23;;;3.00;99.90;;;;;;5014827;28;20102;-74
2021/11/15 05:13:44;;;;;;;63.92;29.50;;;2.90;99.90;;;;;;5035876;28;20030;-74
2021/11/15 05:16:10;;;;;;;65.68;26.60;;;2.90;99.90;;;;;;5035759;28;20033;-74
2021/11/15 05:18:35;;;;;;;66.95;27.77;;;2.90;99.90;;;;;;5025756;28;20026;-74
2021/11/15 05:21:01;;;;;;;68.28;30.13;;;2.90;99.90;;;;;;5015963;28;20018;-74
2021/11/15 05:23:28;;;;;;;71.25;29.25;;;2.90;99.90;;;;;;5015173;28;20455;-74
2021/11/15 05:25:54;;;;;;;66.20;29.67;;;2.90;99.90;;;;;;5035382;28;20112;-74
2021/11/15 05:28:20;;;;;;;68.97;30.20;;;2.90;99.90;;;;;;5035413;28;20037;-74
2021/11/15 05:30:46;;;;;;;74.78;31.92;;;2.90;99.90;;;;;;5033383;28;20026;-74
2021/11/15 05:33:12;;;;;;;70.05;30.63;;;2.90;99.90;;;;;;5034709;28;20025;-74
2021/11/15 05:35:38;;;;;;;76.90;31.90;;;2.90;99.90;;;;;;5035289;28;20038;-74
2021/11/15 05:38:04;;;;;;;72.70;32.63;;;2.90;99.90;;;;;;5050801;28;20025;-74
2021/11/15 05:40:30;;;;;;;68.15;28.90;;;2.90;99.90;;;;;;5035046;28;20104;-74
2021/11/15 05:42:56;;;;;;;61.80;27.35;;;2.90;99.90;;;;;;5035325;28;20483;-74
2021/11/15 05:45:25;;;;;;;62.40;28.50;;;2.90;99.90;;;;;;5032781;28;20032;-74
2021/11/15 05:47:51;;;;;;;63.90;28.08;;;2.80;99.90;;;;;;5035092;28;20071;-74
2021/11/15 05:50:18;;;;;;;62.55;27.75;;;2.90;99.90;;;;;;5033367;28;20034;-74
2021/11/15 05:52:44;;;;;;;68.05;28.98;;;2.80;99.90;;;;;;5031813;28;20483;-74
2021/11/15 05:55:14;;;;;;;60.53;26.38;;;2.80;99.90;;;;;;5033023;28;20033;-74
2021/11/15 05:57:40;;;;;;;62.92;27.77;;;2.80;99.90;;;;;;5034201;28;20026;-74
2021/11/15 06:00:08;;;;;;;68.05;29.65;;;2.80;99.90;;;;;;5034289;28;20099;-74
2021/11/15 06:02:34;;;;;;;73.47;31.27;;;2.80;99.90;;;;;;5033611;28;20068;-73
2021/11/15 06:05:00;;;;;;;73.28;29.23;;;2.80;99.90;;;;;;5024004;28;20068;-74
2021/11/15 06:07:25;;;;;;;64.15;29.27;;;2.80;99.90;;;;;;5035015;28;20025;-74
2021/11/15 06:09:51;;;;;;;70.85;30.13;;;2.80;99.90;;;;;;5034816;28;20032;-74
2021/11/15 06:12:17;;;;;;;71.90;28.33;;;2.80;99.90;;;;;;5034164;28;20029;-74
2021/11/15 06:14:42;;;;;;;67.53;28.08;;;2.80;99.90;;;;;;5034412;28;20033;-73
2021/11/15 06:17:08;;;;;;;71.90;31.52;;;2.90;99.90;;;;;;5033609;28;20026;-74
2021/11/15 06:19:34;;;;;;;64.22;28.73;;;2.90;99.90;;;;;;5023814;28;20109;-74
2021/11/15 06:22:01;;;;;;;60.90;28.48;;;2.90;99.90;;;;;;5032635;28;20025;-74
2021/11/15 06:24:26;;;;;;;68.68;29.65;;;2.90;99.90;;;;;;5032187;28;20033;-74
2021/11/15 06:26:52;;;;;;;72.25;28.88;;;2.90;99.90;;;;;;5033716;28;20025;-74
2021/11/15 06:29:18;;;;;;;72.78;29.10;;;2.90;99.90;;;;;;5034031;28;20060;-74
2021/11/15 06:31:44;;;;;;;61.55;27.90;;;2.90;99.90;;;;;;5033753;28;20163;-74
2021/11/15 06:34:10;;;;;;;75.90;32.60;;;2.90;99.90;;;;;;5033902;28;20522;-74
2021/11/15 06:36:36;;;;;;;72.38;30.23;;;2.90;99.90;;;;;;5033651;28;20042;-74
2021/11/15 06:39:03;;;;;;;85.40;36.47;;;2.90;99.90;;;;;;5032990;28;20037;-74
2021/11/15 06:41:29;;;;;;;90.25;36.78;;;3.00;99.90;;;;;;5023213;28;20579;-74
2021/11/15 06:43:54;;;;;;;89.35;35.88;;;3.00;99.90;;;;;;5038597;28;20100;-74
2021/11/15 06:46:20;;;;;;;91.55;40.22;;;3.00;99.90;;;;;;5053347;28;20044;-75
2021/11/15 06:48:46;;;;;;;84.72;34.25;;;2.90;99.90;;;;;;5053961;28;20032;-74
2021/11/15 06:51:12;;;;;;;86.43;35.00;;;2.90;99.90;;;;;;5053758;28;20067;-75
2021/11/15 06:53:40;;;;;;;88.57;35.83;;;2.90;99.90;;;;;;5052395;28;20112;-75
2021/11/15 06:56:06;;;;;;;94.35;37.78;;;2.90;99.90;;;;;;5052476;28;20394;-74
2021/11/15 06:58:33;;;;;;;94.20;35.50;;;2.90;99.90;;;;;;5048011;28;20037;-74
2021/11/15 07:01:00;;;;;;;95.63;37.78;;;2.90;99.90;;;;;;5029951;28;20119;-74
2021/11/15 07:03:26;;;;;;;101.55;36.60;;;2.90;99.90;;;;;;5033031;28;20100;-74
2021/11/15 07:05:52;;;;;;;103.25;40.28;;;2.90;99.90;;;;;;5030563;28;20031;-74
2021/11/15 07:08:18;;;;;;;99.03;41.08;;;2.90;99.90;;;;;;5032806;28;20021;-74
2021/11/15 07:10:44;;;;;;;96.00;35.58;;;2.90;99.90;;;;;;5032107;28;20025;-74
2021/11/15 07:13:12;;;;;;;100.57;39.20;;;2.90;99.90;;;;;;5032628;28;20057;-74
2021/11/15 07:15:38;;;;;;;103.63;38.55;;;2.90;99.90;;;;;;5033000;28;20047;-74
2021/11/15 07:18:04;;;;;;;92.25;38.40;;;2.90;99.90;;;;;;5027855;28;20112;-74
2021/11/15 07:20:29;;;;;;;99.75;40.20;;;2.90;99.90;;;;;;5030035;28;20029;-74
2021/11/15 07:22:55;;;;;;;89.88;38.00;;;2.90;99.90;;;;;;5027343;28;20017;-75
2021/11/15 07:25:21;;;;;;;95.15;39.03;;;3.00;99.90;;;;;;5012311;28;20380;-74
2021/11/15 07:27:49;;;;;;;91.40;37.10;;;2.90;99.90;;;;;;5030345;28;20527;-75
2021/11/15 07:30:16;;;;;;;100.47;40.00;;;3.00;99.90;;;;;;5029165;28;20017;-75
2021/11/15 07:32:41;;;;;;;92.13;37.38;;;3.00;99.90;;;;;;5030586;28;20557;-74
2021/11/15 07:35:08;;;;;;;103.15;38.47;;;3.00;99.90;;;;;;5029510;28;20037;-74
2021/11/15 07:37:35;;;;;;;101.47;40.20;;;3.00;99.90;;;;;;5031887;28;20554;-74
2021/11/15 07:40:06;;;;;;;113.72;43.35;;;3.00;99.90;;;;;;5032818;28;20025;-74
2021/11/15 07:42:33;;;;;;;106.95;40.88;;;3.10;99.90;;;;;;5033109;28;20025;-74
2021/11/15 07:44:58;;;;;;;97.25;36.50;;;3.10;99.90;;;;;;5033064;28;20030;-74
2021/11/15 07:47:24;;;;;;;98.57;41.75;;;3.10;99.90;;;;;;5031570;28;20052;-74
2021/11/15 07:49:50;;;;;;;103.88;42.30;;;3.10;99.90;;;;;;5031236;28;20017;-74
2021/11/15 07:52:17;;;;;;;104.78;37.70;;;3.10;99.90;;;;;;5033193;28;20025;-74
2021/11/15 07:54:43;;;;;;;105.57;38.35;;;3.10;99.90;;;;;;5031924;28;20029;-74
2021/11/15 07:57:09;;;;;;;99.97;39.35;;;3.20;99.90;;;;;;5031019;28;20021;-74
2021/11/15 07:59:36;;;;;;;114.88;43.00;;;3.20;99.90;;;;;;5020462;28;20104;-74
2021/11/15 08:02:02;;;;;;;114.47;42.72;;;3.20;99.90;;;;;;5030783;28;20056;-74
2021/11/15 08:04:28;;;;;;;94.68;37.42;;;3.20;99.90;;;;;;5028799;28;20026;-74
2021/11/15 08:06:54;;;;;;;103.25;42.40;;;3.20;99.90;;;;;;5013176;28;20365;-74
2021/11/15 08:09:19;;;;;;;105.30;41.15;;;3.20;99.90;;;;;;5012981;28;20033;-74
2021/11/15 08:11:47;;;;;;;103.57;42.03;;;3.20;99.90;;;;;;5013141;28;20471;-74
2021/11/15 08:14:13;;;;;;;99.78;37.63;;;3.20;99.90;;;;;;5013033;28;20044;-75
2021/11/15 08:16:39;;;;;;;100.75;39.72;;;3.20;99.90;;;;;;5011722;28;20124;-74
2021/11/15 08:19:05;;;;;;;104.40;41.10;;;3.20;99.90;;;;;;5020661;28;20478;-74
2021/11/15 08:21:31;;;;;;;119.93;42.72;;;3.20;99.90;;;;;;5032719;28;20509;-74
2021/11/15 08:24:17;;;;;;;118.90;42.33;;;3.30;99.90;;;;;;5036206;28;20025;-74
2021/11/15 08:26:56;;;;;;;107.68;42.40;;;3.30;99.90;;;;;;5036891;28;20103;-74
2021/11/15 08:29:23;;;;;;;112.25;42.65;;;3.30;99.90;;;;;;5036483;28;20032;-74
2021/11/15 08:31:51;;;;;;;108.47;44.08;;;3.30;99.90;;;;;;5036692;28;20017;-74
2021/11/15 08:34:17;;;;;;;99.53;41.22;;;3.30;99.90;;;;;;5036646;28;20030;-74
2021/11/15 08:36:44;;;;;;;118.55;46.15;;;3.30;99.90;;;;;;5034203;28;20061;-74
2021/11/15 08:39:14;;;;;;;121.28;43.30;;;3.40;99.90;;;;;;5036527;28;20108;-74
2021/11/15 08:41:46;;;;;;;115.28;42.20;;;3.40;99.90;;;;;;5035875;28;20132;-74
2021/11/15 08:44:13;;;;;;;117.15;43.13;;;3.40;99.90;;;;;;5015815;28;20025;-74
2021/11/15 08:46:40;;;;;;;102.25;44.53;;;3.40;99.90;;;;;;5014729;28;20109;-74
2021/11/15 08:49:09;;;;;;;116.57;44.45;;;3.40;99.90;;;;;;5015770;28;20025;-74
2021/11/15 08:51:36;;;;;;;105.63;40.15;;;3.40;99.90;;;;;;5016423;28;20192;-74
2021/11/15 08:54:04;;;;;;;116.53;42.33;;;3.50;99.90;;;;;;5016501;28;20049;-74
2021/11/15 08:56:30;;;;;;;109.47;38.63;;;3.50;99.90;;;;;;5015506;28;20026;-74
2021/11/15 08:58:56;;;;;;;102.22;35.17;;;3.50;99.90;;;;;;5016308;28;20033;-74
2021/11/15 09:01:24;;;;;;;102.82;41.45;;;3.50;99.90;;;;;;5016342;28;20460;-74
2021/11/15 09:03:53;;;;;;;93.05;37.88;;;3.60;99.90;;;;;;5016345;28;20036;-74
2021/11/15 09:06:20;;;;;;;92.20;36.30;;;3.60;99.90;;;;;;5016321;28;20025;-74
2021/11/15 09:08:46;;;;;;;85.95;35.50;;;3.60;99.90;;;;;;5014960;28;20446;-74
2021/11/15 09:11:13;;;;;;;88.43;36.08;;;3.70;99.90;;;;;;5016606;28;20037;-74
2021/11/15 09:13:42;;;;;;;84.28;34.47;;;3.70;99.90;;;;;;5016160;28;20025;-74
2021/11/15 09:16:08;;;;;;;82.78;33.67;;;3.70;99.90;;;;;;5016011;28;20068;-74
2021/11/15 09:18:35;;;;;;;86.10;36.38;;;3.70;99.90;;;;;;5016040;28;20053;-74
2021/11/15 09:21:04;;;;;;;85.43;35.20;;;3.70;99.90;;;;;;5015956;28;20079;-74
2021/11/15 09:23:30;;;;;;;81.25;32.90;;;3.80;99.90;;;;;;5015951;28;20037;-74
2021/11/15 09:25:56;;;;;;;80.93;35.15;;;3.80;99.90;;;;;;5015845;28;20487;-74
2021/11/15 09:28:21;;;;;;;84.80;31.67;;;3.80;99.90;;;;;;5014645;28;20022;-75
2021/11/15 09:30:48;;;;;;;77.00;28.70;;;3.80;99.90;;;;;;5015650;28;20480;-74
2021/11/15 09:33:14;;;;;;;86.07;33.85;;;3.80;99.90;;;;;;5015307;28;20026;-74
2021/11/15 09:35:49;;;;;;;82.13;33.47;;;3.90;99.90;;;;;;5014325;28;20483;-74
2021/11/15 09:38:18;;;;;;;74.88;29.85;;;3.90;99.90;;;;;;5016009;28;20022;-74
2021/11/15 09:40:46;;;;;;;70.18;30.17;;;3.90;99.90;;;;;;5015629;28;20373;-74
2021/11/15 09:43:13;;;;;;;73.72;30.45;;;4.00;99.90;;;;;;5015634;28;20025;-74
2021/11/15 09:45:39;;;;;;;68.55;29.40;;;4.00;99.90;;;;;;5015517;28;20069;-74
2021/11/15 09:48:05;;;;;;;74.22;28.17;;;4.10;99.90;;;;;;5015527;28;20096;-74
2021/11/15 09:50:31;;;;;;;77.25;32.70;;;4.10;99.90;;;;;;5015404;28;20053;-74
2021/11/15 09:52:56;;;;;;;77.43;31.45;;;4.10;99.90;;;;;;5015396;28;20030;-74
2021/11/15 09:55:22;;;;;;;69.13;28.05;;;4.20;99.90;;;;;;5015288;28;20476;-74
2021/11/15 09:57:49;;;;;;;70.38;29.00;;;4.20;99.90;;;;;;5030570;28;20064;-74
2021/11/15 10:00:21;;;;;;;60.90;27.50;;;4.20;99.90;;;;;;5013983;28;20026;-74
2021/11/15 10:02:48;;;;;;;73.30;29.85;;;4.30;99.90;;;;;;5015256;28;20022;-74
2021/11/15 10:05:15;;;;;;;62.65;26.42;;;4.40;99.90;;;;;;5015169;28;20054;-74
2021/11/15 10:07:42;;;;;;;61.90;26.10;;;4.40;99.90;;;;;;5015156;28;20030;-74
2021/11/15 10:10:40;;;;;;;60.10;27.08;;;4.40;99.90;;;;;;5013835;28;20095;-74
2021/11/15 10:13:29;;;;;;;55.67;26.27;;;4.40;99.90;;;;;;5015079;28;20057;-74
2021/11/15 10:16:00;;;;;;;61.50;27.65;;;4.30;99.90;;;;;;5014837;28;20446;-74
2021/11/15 10:18:37;;;;;;;63.88;27.52;;;4.30;99.90;;;;;;5013742;28;20061;-74
2021/11/15 10:21:19;;;;;;;73.82;31.05;;;4.30;99.90;;;;;;5014925;28;20026;-74
2021/11/15 10:24:01;;;;;;;69.25;28.42;;;4.40;99.90;;;;;;5014358;28;20495;-74
2021/11/15 10:26:35;;;;;;;68.32;29.83;;;4.30;99.90;;;;;;5014657;28;20052;-74
2021/11/15 10:29:07;;;;;;;77.97;29.15;;;4.30;99.90;;;;;;5013533;28;20404;-74
2021/11/15 10:31:37;;;;;;;65.63;28.30;;;4.30;99.90;;;;;;5013277;28;20080;-74
2021/11/15 10:34:05;;;;;;;70.65;28.52;;;4.30;99.90;;;;;;5014653;28;20033;-74
2021/11/15 10:36:43;;;;;;;62.67;26.35;;;4.30;99.90;;;;;;5014408;28;20499;-74
2021/11/15 10:39:09;;;;;;;72.00;29.48;;;4.30;99.90;;;;;;5013289;28;20502;-74
2021/11/15 10:41:35;;;;;;;72.03;27.33;;;4.30;99.90;;;;;;5013168;28;20025;-74
2021/11/15 10:44:01;;;;;;;66.15;27.35;;;4.30;99.90;;;;;;5014462;28;20080;-74
2021/11/15 10:46:35;;;;;;;73.80;30.55;;;4.20;99.90;;;;;;5013560;28;20029;-74
2021/11/15 10:49:07;;;;;;;56.42;26.52;;;4.30;99.90;;;;;;5014146;28;20030;-74
2021/11/15 10:51:46;;;;;;;80.88;29.35;;;4.20;99.90;;;;;;5013049;28;20113;-74
2021/11/15 10:57:27;;;;;;;79.10;29.33;;;4.20;99.90;;;;;;5014310;28;20073;-74
2021/11/15 11:00:04;;;;;;;69.13;29.42;;;4.10;99.90;;;;;;5014145;28;20582;-75
2021/11/15 11:02:31;;;;;;;79.18;31.92;;;4.10;99.90;;;;;;5014148;28;20391;-74
2021/11/15 11:05:18;;;;;;;77.70;32.22;;;4.10;99.90;;;;;;5014060;28;20029;-74
2021/11/15 11:07:47;;;;;;;80.20;31.55;;;4.10;99.90;;;;;;5013998;28;20516;-74
2021/11/15 11:10:19;;;;;;;78.90;33.58;;;4.10;99.90;;;;;;5014086;28;20026;-74
2021/11/15 11:12:59;;;;;;;81.97;32.65;;;4.00;99.90;;;;;;5013999;28;20037;-74
2021/11/15 11:15:40;;;;;;;90.65;32.42;;;4.00;99.90;;;;;;5012626;28;20482;-75
2021/11/15 11:18:19;;;;;;;86.38;32.05;;;4.10;99.90;;;;;;5013891;28;20542;-74
2021/11/15 11:26:18;;;;;;;85.72;34.42;;;4.10;99.90;;;;;;5013624;28;20034;-74
2021/11/15 11:28:54;;;;;;;80.88;31.83;;;4.10;99.90;;;;;;5012367;28;20022;-74
2021/11/15 11:31:20;;;;;;;83.13;33.33;;;4.10;99.90;;;;;;5013516;28;20030;-75
2021/11/15 11:33:46;;;;;;;87.40;35.92;;;4.20;99.90;;;;;;5013636;28;20387;-74
2021/11/15 11:36:12;;;;;;;89.32;35.75;;;4.20;99.90;;;;;;5013457;28;20034;-74
2021/11/15 11:38:40;;;;;;;89.78;34.22;;;4.30;99.90;;;;;;5012264;28;20049;-74
2021/11/15 11:41:07;;;;;;;86.68;33.55;;;4.30;99.90;;;;;;5012200;28;20026;-74
2021/11/15 11:43:33;;;;;;;87.70;33.47;;;4.40;99.90;;;;;;5013477;28;20029;-74
2021/11/15 11:45:59;;;;;;;85.03;33.88;;;4.40;99.90;;;;;;5013357;28;20064;-74
2021/11/15 11:48:25;;;;;;;107.50;37.97;;;4.40;99.90;;;;;;5013485;28;20086;-74
2021/11/15 11:50:54;;;;;;;85.72;33.42;;;4.40;99.90;;;;;;5013253;28;20029;-74
2021/11/15 11:53:22;;;;;;;87.95;36.17;;;4.30;99.90;;;;;;5013654;28;20022;-74
2021/11/15 11:55:48;;;;;;;92.95;35.42;;;4.40;99.90;;;;;;5031624;28;20541;-74
2021/11/15 11:58:26;;;;;;;90.88;37.17;;;4.30;99.90;;;;;;5032975;28;20017;-74
2021/11/15 12:00:57;;;;;;;90.97;35.33;;;4.40;99.90;;;;;;5013595;28;20030;-74
2021/11/15 12:03:24;;;;;;;94.55;35.30;;;4.40;99.90;;;;;;5013368;28;20054;-74
2021/11/15 12:05:54;;;;;;;80.30;33.70;;;4.40;99.90;;;;;;5013139;28;20084;-74
2021/11/15 12:08:52;;;;;;;96.28;34.80;;;4.40;99.90;;;;;;5011967;28;20391;-74
2021/11/15 12:11:27;;;;;;;94.40;35.13;;;4.50;99.90;;;;;;5029436;28;20064;-74
2021/11/15 12:13:54;;;;;;;85.07;33.33;;;4.40;99.90;;;;;;5031523;28;20490;-74
2021/11/15 12:16:20;;;;;;;88.18;33.97;;;4.40;99.90;;;;;;5032728;28;20044;-74
2021/11/15 12:19:00;;;;;;;93.53;39.80;;;4.40;99.90;;;;;;5032781;28;20049;-74
2021/11/15 12:21:37;;;;;;;112.10;39.20;;;4.40;99.90;;;;;;5032824;28;20076;-74
2021/11/15 12:24:14;;;;;;;102.00;38.58;;;4.40;99.90;;;;;;5031469;28;20055;-74
2021/11/15 12:26:49;;;;;;;104.13;39.10;;;4.40;99.90;;;;;;5031442;28;20030;-74
2021/11/15 12:29:34;;;;;;;65.22;25.80;;;4.40;99.90;;;;;;5031316;28;20022;-74
2021/11/15 12:32:07;;;;;;;69.47;28.45;;;4.30;99.90;;;;;;5031348;28;20031;-74
2021/11/15 12:34:53;;;;;;;71.40;30.33;;;4.40;99.90;;;;;;5015147;28;20080;-74
2021/11/15 12:37:34;;;;;;;76.43;32.42;;;4.40;99.90;;;;;;5012930;28;20030;-74
2021/11/15 12:39:59;;;;;;;69.60;28.20;;;4.40;99.90;;;;;;5012847;28;20026;-74
2021/11/15 12:42:30;;;;;;;73.55;29.88;;;4.40;99.90;;;;;;5012891;28;20032;-74
2021/11/15 12:45:11;;;;;;;71.03;31.45;;;4.40;99.90;;;;;;5012852;28;20537;-75
2021/11/15 12:47:46;;;;;;;81.75;31.33;;;4.40;99.90;;;;;;5012758;28;20025;-74
2021/11/15 12:50:20;;;;;;;80.78;32.28;;;4.40;99.90;;;;;;5012778;28;20551;-74